Glennville, Georgia
Current Conditions -  °F | °C
As of 3:35 AM on Thursday 27 Nov 2014 (Local Time) from KCWV Reporting Station
Clear Clear  
Wind Chill: 44°   Ceiling: Unl
Heat Index: 46°   Visibility: 10mi
Dew Point: 21°   Wind: 6mph
Humidity: 37%   Direction: 240°WSW
Pressure: 30.13"   Gusts: NA
Location:  31.94°N, 81.93°W
Report Text: KCWV 270835Z AUTO 24005KT 10SM CLR 08/M06 A3013 RMK AO2
Loading
Personal Weather Stations






























Interactive Weather Map New forecast layout! Learn more

10-Day Weather Forecast

Advertisements
Track Severe Weather on mobile